createdAt,value
2023-02-12T00:01:18.711Z,102399.66
2023-02-12T00:03:48.455Z,102399.63
2023-02-12T00:06:17.110Z,102402.28
2023-02-12T00:08:45.179Z,102407.62
2023-02-12T00:11:15.726Z,102410.34
2023-02-12T00:13:44.319Z,102405.09
2023-02-12T00:16:15.173Z,102419.28
2023-02-12T00:18:43.643Z,102426.34
2023-02-12T00:21:14.035Z,102418.38
2023-02-12T00:23:42.466Z,102417.53
2023-02-12T00:26:12.765Z,102411.41
2023-02-12T00:28:42.289Z,102414.13
2023-02-12T00:31:12.673Z,102422.97
2023-02-12T00:33:41.156Z,102412.31
2023-02-12T00:36:10.422Z,102415.03
2023-02-12T00:38:40.580Z,102419.50
2023-02-12T00:41:08.635Z,102419.59
2023-02-12T00:43:36.691Z,102426.66
2023-02-12T00:46:07.087Z,102418.91
2023-02-12T00:48:35.707Z,102428.12
2023-02-12T00:51:04.604Z,102432.22
2023-02-12T00:53:33.745Z,102427.63
2023-02-12T00:56:03.316Z,102429.38
2023-02-12T00:58:31.450Z,102438.09
2023-02-12T01:01:01.172Z,102432.84
2023-02-12T01:03:29.200Z,102436.19
2023-02-12T01:05:57.751Z,102439.78
2023-02-12T01:08:26.361Z,102440.50
2023-02-12T01:10:59.754Z,102443.06
2023-02-12T01:13:31.781Z,102436.97
2023-02-12T01:16:08.705Z,102438.91
2023-02-12T01:18:37.783Z,102441.38
2023-02-12T01:21:12.035Z,102438.66
2023-02-12T01:23:40.614Z,102438.78
2023-02-12T01:26:10.866Z,102445.56
2023-02-12T01:28:41.232Z,102436.31
2023-02-12T01:31:11.954Z,102436.87
2023-02-12T01:33:40.611Z,102443.91
2023-02-12T01:36:10.018Z,102438.53
2023-02-12T01:38:38.409Z,102440.06
2023-02-12T01:41:08.449Z,102439.31
2023-02-12T01:43:38.070Z,102448.16
2023-02-12T01:46:09.080Z,102434.28
2023-02-12T01:48:40.001Z,102435.56
2023-02-12T01:51:11.997Z,102439.81
2023-02-12T01:53:47.404Z,102434.44
2023-02-12T01:56:16.711Z,102435.09
2023-02-12T01:58:48.283Z,102430.75
2023-02-12T02:01:21.244Z,102437.97
2023-02-12T02:03:53.331Z,102429.00
2023-02-12T02:06:24.079Z,102430.75
2023-02-12T02:08:52.364Z,102422.75
2023-02-12T02:11:38.250Z,102434.56
2023-02-12T02:14:24.739Z,102434.88
2023-02-12T02:17:04.286Z,102429.06
2023-02-12T02:19:56.841Z,102439.13
2023-02-12T02:22:32.173Z,102430.34
2023-02-12T02:25:47.226Z,102430.16
2023-02-12T02:28:34.874Z,102435.31
2023-02-12T02:31:08.844Z,102435.75
2023-02-12T02:33:43.012Z,102431.53
2023-02-12T02:36:18.763Z,102429.31
2023-02-12T02:38:52.292Z,102429.84
2023-02-12T02:41:25.892Z,102427.88
2023-02-12T02:43:54.705Z,102426.94
2023-02-12T02:46:30.880Z,102432.69
2023-02-12T02:49:03.187Z,102424.56
2023-02-12T02:51:34.403Z,102418.78
2023-02-12T02:54:08.954Z,102415.63
2023-02-12T02:56:40.384Z,102418.66
2023-02-12T02:59:12.957Z,102423.03
2023-02-12T03:01:48.076Z,102423.28
2023-02-12T03:04:22.785Z,102423.28
2023-02-12T03:06:56.619Z,102430.66
2023-02-12T03:09:28.768Z,102433.81
2023-02-12T03:12:00.226Z,102436.38
2023-02-12T03:14:32.818Z,102431.16
2023-02-12T03:17:06.768Z,102438.69
2023-02-12T03:19:40.863Z,102451.44
2023-02-12T03:22:11.775Z,102448.13
2023-02-12T03:24:44.474Z,102449.91
2023-02-12T03:27:18.386Z,102453.66
2023-02-12T03:29:47.284Z,102456.09
2023-02-12T03:32:28.262Z,102453.41
2023-02-12T03:35:08.520Z,102456.97
2023-02-12T03:37:39.920Z,102456.06
2023-02-12T03:40:17.190Z,102458.72
2023-02-12T03:42:51.450Z,102464.00
2023-02-12T03:45:30.386Z,102471.88
2023-02-12T03:48:07.772Z,102468.34
2023-02-12T03:50:44.198Z,102467.97
2023-02-12T03:53:12.624Z,102469.81
2023-02-12T03:55:43.659Z,102480.25
2023-02-12T03:58:16.919Z,102477.66
2023-02-12T04:00:45.476Z,102479.41
2023-02-12T04:03:15.271Z,102482.69
2023-02-12T04:05:43.295Z,102481.03
2023-02-12T04:08:13.388Z,102486.78
2023-02-12T04:10:56.312Z,102491.25
2023-02-12T04:13:29.858Z,102492.66
2023-02-12T04:16:14.999Z,102497.47
2023-02-12T04:18:47.093Z,102494.75
2023-02-12T04:21:27.355Z,102501.78
2023-02-12T04:24:06.710Z,102497.97
2023-02-12T04:26:41.413Z,102508.75
2023-02-12T04:29:18.326Z,102512.56
2023-02-12T04:31:51.072Z,102516.16
2023-02-12T04:34:28.132Z,102520.66
2023-02-12T04:37:03.519Z,102528.75
2023-02-12T04:39:35.191Z,102522.59
2023-02-12T04:42:05.009Z,102516.41
2023-02-12T04:44:35.548Z,102519.94
2023-02-12T04:47:03.958Z,102511.97
2023-02-12T04:49:33.448Z,102519.19
2023-02-12T04:52:01.540Z,102511.25
2023-02-12T04:54:30.294Z,102523.75
2023-02-12T04:56:58.486Z,102527.34
2023-02-12T04:59:26.530Z,102530.94
2023-02-12T05:01:54.867Z,102527.47
2023-02-12T05:04:23.210Z,102525.72
2023-02-12T05:06:52.770Z,102530.12
2023-02-12T05:09:21.941Z,102537.22
2023-02-12T05:11:50.168Z,102526.66
2023-02-12T05:14:18.188Z,102530.28
2023-02-12T05:16:46.398Z,102533.94
2023-02-12T05:19:14.558Z,102521.63
2023-02-12T05:21:42.630Z,102523.47
2023-02-12T05:24:12.247Z,102527.00
2023-02-12T05:26:40.312Z,102526.25
2023-02-12T05:29:08.314Z,102523.59
2023-02-12T05:31:36.955Z,102527.12
2023-02-12T05:34:05.035Z,102526.31
2023-02-12T05:36:33.132Z,102529.78
2023-02-12T05:39:01.416Z,102525.47
2023-02-12T05:41:34.942Z,102522.78
2023-02-12T05:44:03.704Z,102534.31
2023-02-12T05:46:32.520Z,102528.94
2023-02-12T05:49:00.804Z,102524.53
2023-02-12T05:51:29.150Z,102527.19
2023-02-12T05:53:58.871Z,102532.56
2023-02-12T05:56:29.509Z,102534.59
2023-02-12T05:59:02.326Z,102540.84
2023-02-12T06:01:32.136Z,102537.12
2023-02-12T06:04:01.052Z,102543.31
2023-02-12T06:06:30.542Z,102549.56
2023-02-12T06:08:59.240Z,102549.00
2023-02-12T06:11:28.427Z,102555.50
2023-02-12T06:13:56.381Z,102561.09
2023-02-12T06:16:28.077Z,102563.31
2023-02-12T06:18:57.663Z,102562.37
2023-02-12T06:21:27.742Z,102565.00
2023-02-12T06:23:56.784Z,102572.84
2023-02-12T06:26:26.272Z,102572.72
2023-02-12T06:28:54.564Z,102571.09
2023-02-12T06:31:26.506Z,102572.53
2023-02-12T06:33:56.332Z,102576.94
2023-02-12T06:36:25.454Z,102576.88
2023-02-12T06:38:54.370Z,102576.94
2023-02-12T06:41:23.891Z,102578.63
2023-02-12T06:43:52.020Z,102575.09
2023-02-12T06:46:20.081Z,102578.63
2023-02-12T06:48:49.705Z,102578.78
2023-02-12T06:51:21.856Z,102581.53
2023-02-12T06:53:50.585Z,102589.56
2023-02-12T06:56:20.086Z,102593.13
2023-02-12T06:58:52.917Z,102593.09
2023-02-12T07:01:23.226Z,102602.16
2023-02-12T07:03:54.517Z,102599.72
2023-02-12T07:06:23.997Z,102603.19
2023-02-12T07:08:52.484Z,102604.00
2023-02-12T07:11:24.751Z,102606.66
2023-02-12T07:13:53.347Z,102613.78
2023-02-12T07:16:21.624Z,102611.88
2023-02-12T07:18:49.934Z,102611.00
2023-02-12T07:21:20.396Z,102612.09
2023-02-12T07:23:50.988Z,102611.28
2023-02-12T07:26:21.183Z,102615.78
2023-02-12T07:28:49.955Z,102620.31
2023-02-12T07:31:19.938Z,102620.25
2023-02-12T07:33:49.202Z,102626.47
2023-02-12T07:36:19.957Z,102623.72
2023-02-12T07:38:48.746Z,102628.06
2023-02-12T07:41:19.149Z,102636.84
2023-02-12T07:43:48.980Z,102634.19
2023-02-12T07:46:19.275Z,102642.00
2023-02-12T07:48:47.833Z,102641.06
2023-02-12T07:51:19.167Z,102644.38
2023-02-12T07:53:50.026Z,102644.25
2023-02-12T07:56:20.859Z,102643.37
2023-02-12T07:59:09.897Z,102642.47
2023-02-12T08:01:57.210Z,102645.06
2023-02-12T08:04:33.740Z,102648.56
2023-02-12T08:07:09.211Z,102644.09
2023-02-12T08:09:47.619Z,102646.66
2023-02-12T08:12:21.017Z,102646.47
2023-02-12T08:14:49.497Z,102658.91
2023-02-12T08:17:17.580Z,102660.94
2023-02-12T08:19:45.585Z,102661.78
2023-02-12T08:22:14.192Z,102666.59
2023-02-12T08:24:43.677Z,102656.59
2023-02-12T08:27:11.779Z,102663.28
2023-02-12T08:29:40.099Z,102671.75
2023-02-12T08:32:13.954Z,102668.56
2023-02-12T08:34:42.844Z,102673.50
2023-02-12T08:37:11.394Z,102664.63
2023-02-12T08:39:39.483Z,102672.47
2023-02-12T08:42:10.632Z,102675.91
2023-02-12T08:44:40.739Z,102679.22
2023-02-12T08:47:10.196Z,102675.47
2023-02-12T08:49:38.851Z,102678.81
2023-02-12T08:52:07.054Z,102682.16
2023-02-12T08:54:35.639Z,102691.69
2023-02-12T08:57:04.588Z,102690.72
2023-02-12T08:59:34.239Z,102693.28
2023-02-12T09:02:04.354Z,102695.22
2023-02-12T09:04:32.717Z,102691.41
2023-02-12T09:07:00.782Z,102701.16
2023-02-12T09:09:29.172Z,102699.41
2023-02-12T09:11:57.258Z,102700.06
2023-02-12T09:14:25.642Z,102703.88
2023-02-12T09:16:58.250Z,102714.47
2023-02-12T09:19:26.507Z,102712.66
2023-02-12T09:21:56.740Z,102714.59
2023-02-12T09:24:27.546Z,102720.06
2023-02-12T09:26:56.403Z,102720.97
2023-02-12T09:29:24.374Z,102725.56
2023-02-12T09:31:52.494Z,102730.03
2023-02-12T09:34:22.273Z,102726.69
2023-02-12T09:36:50.297Z,102727.09
2023-02-12T09:39:18.274Z,102731.31
2023-02-12T09:42:10.536Z,102733.75
2023-02-12T09:44:47.279Z,102740.47
2023-02-12T09:47:22.425Z,102746.44
2023-02-12T09:50:04.345Z,102746.91
2023-02-12T09:52:32.807Z,102747.56
2023-02-12T09:55:01.121Z,102744.38
2023-02-12T09:57:34.107Z,102747.56
2023-02-12T10:00:06.673Z,102746.66
2023-02-12T10:02:37.354Z,102745.59
2023-02-12T10:05:15.781Z,102754.31
2023-02-12T10:08:06.074Z,102754.94
2023-02-12T10:10:51.734Z,102748.19
2023-02-12T10:13:31.444Z,102758.78
2023-02-12T10:16:07.523Z,102757.25
2023-02-12T10:18:50.210Z,102753.88
2023-02-12T10:21:29.418Z,102761.28
2023-02-12T10:24:08.127Z,102754.94
2023-02-12T10:26:41.228Z,102748.34
2023-02-12T10:29:15.983Z,102748.13
2023-02-12T10:31:47.131Z,102755.91
2023-02-12T10:34:20.394Z,102749.00
2023-02-12T10:36:52.731Z,102746.50
2023-02-12T10:39:25.299Z,102747.25
2023-02-12T10:42:00.327Z,102740.94
2023-02-12T10:44:29.341Z,102747.66
2023-02-12T10:46:57.480Z,102746.13
2023-02-12T10:49:25.802Z,102741.59
2023-02-12T10:52:09.499Z,102742.88
2023-02-12T10:54:40.987Z,102746.03
2023-02-12T10:57:14.618Z,102742.09
2023-02-12T10:59:43.984Z,102734.03
2023-02-12T11:02:23.260Z,102738.37
2023-02-12T11:04:52.779Z,102739.19
2023-02-12T11:07:23.861Z,102737.50
2023-02-12T11:09:54.374Z,102737.78
2023-02-12T11:12:31.127Z,102740.72
2023-02-12T11:15:01.466Z,102730.97
2023-02-12T11:17:37.034Z,102729.56
2023-02-12T11:20:22.997Z,102728.09
2023-02-12T11:22:59.080Z,102728.34
2023-02-12T11:25:30.080Z,102726.97
2023-02-12T11:28:04.628Z,102724.00
2023-02-12T11:30:33.442Z,102727.53
2023-02-12T11:33:23.789Z,102721.53
2023-02-12T11:35:54.032Z,102723.56
2023-02-12T11:38:27.919Z,102717.50
2023-02-12T11:41:00.407Z,102723.06
2023-02-12T11:43:31.082Z,102723.03
2023-02-12T11:46:01.298Z,102722.72
2023-02-12T11:48:33.705Z,102714.03
2023-02-12T11:51:05.106Z,102718.66
2023-02-12T11:53:40.450Z,102722.50
2023-02-12T11:56:11.205Z,102722.94
2023-02-12T11:58:40.189Z,102713.00
2023-02-12T12:01:19.126Z,102710.66
2023-02-12T12:03:57.640Z,102714.84
2023-02-12T12:06:32.582Z,102713.88
2023-02-12T12:09:08.809Z,102717.13
2023-02-12T12:11:45.493Z,102711.22
2023-02-12T12:14:21.323Z,102707.47
2023-02-12T12:17:13.301Z,102712.72
2023-02-12T12:19:55.004Z,102712.56
2023-02-12T12:22:40.879Z,102711.63
2023-02-12T12:25:17.520Z,102724.41
2023-02-12T12:28:06.395Z,102725.44
2023-02-12T12:30:50.669Z,102716.50
2023-02-12T12:33:27.652Z,102711.69
2023-02-12T12:36:11.849Z,102705.94
2023-02-12T12:38:53.239Z,102704.63
2023-02-12T12:41:31.864Z,102707.31
2023-02-12T12:44:13.345Z,102699.53
2023-02-12T12:47:00.055Z,102699.78
2023-02-12T12:49:39.780Z,102705.00
2023-02-12T12:52:33.023Z,102699.53
2023-02-12T12:55:24.503Z,102696.72
2023-02-12T12:58:07.119Z,102684.97
2023-02-12T13:00:50.161Z,102684.34
2023-02-12T13:03:58.533Z,102674.53
2023-02-12T13:06:42.073Z,102679.47
2023-02-12T13:09:37.891Z,102680.03
2023-02-12T13:12:40.465Z,102667.00
2023-02-12T13:15:20.581Z,102679.38
2023-02-12T13:17:54.812Z,102678.16
2023-02-12T13:20:32.595Z,102675.38
2023-02-12T13:23:05.638Z,102684.59
2023-02-12T13:25:43.136Z,102682.56
2023-02-12T13:28:15.910Z,102684.44
2023-02-12T13:30:51.727Z,102682.97
2023-02-12T13:33:24.426Z,102682.78
2023-02-12T13:36:00.177Z,102692.28
2023-02-12T13:38:43.486Z,102680.25
2023-02-12T13:41:14.444Z,102679.47
2023-02-12T13:43:53.688Z,102679.84
2023-02-12T13:46:31.377Z,102683.47
2023-02-12T13:49:11.324Z,102678.84
2023-02-12T13:51:46.046Z,102678.84
2023-02-12T13:54:47.770Z,102677.22
2023-02-12T13:57:24.392Z,102683.78
2023-02-12T13:59:54.816Z,102676.09
2023-02-12T14:02:44.624Z,102681.22
2023-02-12T14:05:33.766Z,102682.94
2023-02-12T14:08:05.948Z,102670.22
2023-02-12T14:10:37.513Z,102674.91
2023-02-12T14:13:17.674Z,102685.53
2023-02-12T14:15:51.609Z,102680.31
2023-02-12T14:18:30.641Z,102681.13
2023-02-12T14:21:36.146Z,102681.78
2023-02-12T14:24:52.158Z,102680.59
2023-02-12T14:27:28.807Z,102678.16
2023-02-12T14:30:21.654Z,102674.53
2023-02-12T14:32:59.115Z,102670.03
2023-02-12T14:35:36.754Z,102676.16
2023-02-12T14:38:47.901Z,102667.06
2023-02-12T14:41:37.521Z,102675.72
2023-02-12T14:44:45.995Z,102671.75
2023-02-12T14:47:45.186Z,102670.91
2023-02-12T14:50:19.241Z,102674.37
2023-02-12T14:52:53.393Z,102670.91
2023-02-12T14:55:26.492Z,102669.34
2023-02-12T14:58:06.004Z,102668.56
2023-02-12T15:00:38.993Z,102675.50
2023-02-12T15:03:19.900Z,102674.53
2023-02-12T15:05:56.018Z,102673.56
2023-02-12T15:08:32.088Z,102674.37
2023-02-12T15:11:10.248Z,102679.56
2023-02-12T15:13:49.106Z,102673.28
2023-02-12T15:16:25.886Z,102676.81
2023-02-12T15:18:58.032Z,102676.91
2023-02-12T15:21:29.265Z,102672.62
2023-02-12T15:24:08.083Z,102679.00
2023-02-12T15:26:41.705Z,102674.63
2023-02-12T15:29:22.502Z,102672.16
2023-02-12T15:31:57.283Z,102675.78
2023-02-12T15:34:29.212Z,102678.69
2023-02-12T15:36:59.721Z,102678.81
2023-02-12T15:39:28.922Z,102681.63
2023-02-12T15:41:57.308Z,102678.13
2023-02-12T15:44:29.396Z,102674.66
2023-02-12T15:47:00.953Z,102680.16
2023-02-12T15:49:33.013Z,102674.03
2023-02-12T15:52:04.574Z,102679.53
2023-02-12T15:54:33.087Z,102676.19
2023-02-12T15:57:02.628Z,102685.22
2023-02-12T15:59:31.958Z,102681.09
2023-02-12T16:02:03.337Z,102682.12
2023-02-12T16:04:34.352Z,102682.28
2023-02-12T16:07:03.009Z,102683.38
2023-02-12T16:09:34.807Z,102685.38
2023-02-12T16:12:10.235Z,102684.56
2023-02-12T16:14:44.677Z,102682.22
2023-02-12T16:17:22.178Z,102694.66
2023-02-12T16:19:58.962Z,102694.72
2023-02-12T16:22:33.581Z,102694.75
2023-02-12T16:25:03.099Z,102682.47
2023-02-12T16:27:33.093Z,102687.94
2023-02-12T16:30:05.286Z,102694.28
2023-02-12T16:32:39.654Z,102691.00
2023-02-12T16:35:25.671Z,102693.09
2023-02-12T16:37:57.365Z,102694.09
2023-02-12T16:40:37.467Z,102693.38
2023-02-12T16:43:22.174Z,102702.38
2023-02-12T16:45:52.458Z,102694.53
2023-02-12T16:48:25.339Z,102701.72
2023-02-12T16:50:56.418Z,102704.50
2023-02-12T16:53:43.689Z,102708.09
2023-02-12T16:56:18.676Z,102708.97
2023-02-12T16:58:48.496Z,102708.97
2023-02-12T17:01:21.890Z,102715.25
2023-02-12T17:03:51.108Z,102714.37
2023-02-12T17:06:21.328Z,102720.66
2023-02-12T17:08:49.512Z,102726.19
2023-02-12T17:11:18.138Z,102714.91
2023-02-12T17:13:47.811Z,102716.66
2023-02-12T17:16:29.380Z,102718.41
2023-02-12T17:19:00.513Z,102711.25
2023-02-12T17:21:31.353Z,102713.31
2023-02-12T17:23:59.951Z,102723.09
2023-02-12T17:26:28.228Z,102721.50
2023-02-12T17:28:56.600Z,102719.88
2023-02-12T17:31:25.087Z,102727.87
2023-02-12T17:33:53.271Z,102734.16
2023-02-12T17:36:23.418Z,102729.00
2023-02-12T17:38:51.691Z,102726.47
2023-02-12T17:41:20.145Z,102735.34
2023-02-12T17:43:48.169Z,102731.78
2023-02-12T17:46:20.285Z,102725.53
2023-02-12T17:48:49.398Z,102730.25
2023-02-12T17:51:18.693Z,102732.81
2023-02-12T17:53:48.618Z,102735.37
2023-02-12T17:56:18.664Z,102734.53
2023-02-12T17:58:47.972Z,102730.12
2023-02-12T18:01:18.733Z,102735.37
2023-02-12T18:03:47.174Z,102737.00
2023-02-12T18:06:16.699Z,102736.91
2023-02-12T18:08:44.785Z,102732.44
2023-02-12T18:11:14.693Z,102734.22
2023-02-12T18:13:43.059Z,102729.81
2023-02-12T18:16:11.949Z,102733.34
2023-02-12T18:18:41.258Z,102723.69
2023-02-12T18:21:10.864Z,102728.09
2023-02-12T18:23:39.395Z,102726.34
2023-02-12T18:26:09.781Z,102726.34
2023-02-12T18:28:39.640Z,102724.59
2023-02-12T18:31:09.187Z,102728.28
2023-02-12T18:33:38.409Z,102723.31
2023-02-12T18:36:09.377Z,102727.84
2023-02-12T18:38:39.097Z,102728.72
2023-02-12T18:41:08.484Z,102733.12
2023-02-12T18:43:37.122Z,102731.31
2023-02-12T18:46:10.965Z,102731.31
2023-02-12T18:48:39.504Z,102729.69
2023-02-12T18:51:09.727Z,102734.38
2023-02-12T18:53:37.809Z,102730.22
2023-02-12T18:56:07.294Z,102730.41
2023-02-12T18:58:36.205Z,102727.78
2023-02-12T19:01:15.780Z,102718.81
2023-02-12T19:03:44.616Z,102723.97
2023-02-12T19:06:13.184Z,102723.16
2023-02-12T19:08:41.604Z,102718.75
2023-02-12T19:11:12.920Z,102721.37
2023-02-12T19:13:42.348Z,102722.09
2023-02-12T19:16:16.660Z,102722.03
2023-02-12T19:18:48.941Z,102721.19
2023-02-12T19:21:18.051Z,102727.38
2023-02-12T19:23:46.433Z,102729.09
2023-02-12T19:26:16.163Z,102731.06
2023-02-12T19:28:44.847Z,102734.56
2023-02-12T19:31:15.559Z,102734.50
2023-02-12T19:33:44.633Z,102743.47
2023-02-12T19:36:17.034Z,102740.69
2023-02-12T19:38:45.276Z,102731.97
2023-02-12T19:41:16.768Z,102731.94
2023-02-12T19:43:45.653Z,102727.47
2023-02-12T19:46:16.263Z,102731.87
2023-02-12T19:48:45.226Z,102727.44
2023-02-12T19:51:16.460Z,102729.09
2023-02-12T19:53:44.981Z,102723.78
2023-02-12T19:56:13.429Z,102726.44
2023-02-12T19:58:42.027Z,102725.53
2023-02-12T20:01:12.003Z,102728.31
2023-02-12T20:03:40.854Z,102740.81
2023-02-12T20:06:12.273Z,102737.28
2023-02-12T20:08:44.252Z,102733.75
2023-02-12T20:11:14.296Z,102741.16
2023-02-12T20:13:43.476Z,102730.53
2023-02-12T20:16:15.801Z,102749.19
2023-02-12T20:18:45.353Z,102743.56
2023-02-12T20:21:15.996Z,102743.50
2023-02-12T20:23:45.908Z,102744.41
2023-02-12T20:26:15.438Z,102740.78
2023-02-12T20:28:44.345Z,102739.97
2023-02-12T20:31:14.523Z,102750.50
2023-02-12T20:33:43.447Z,102735.44
2023-02-12T20:36:12.596Z,102741.59
2023-02-12T20:38:41.432Z,102742.47
2023-02-12T20:41:11.481Z,102739.81
2023-02-12T20:43:40.180Z,102741.59
2023-02-12T20:46:09.804Z,102743.34
2023-02-12T20:48:37.880Z,102744.19
2023-02-12T20:51:07.865Z,102741.50
2023-02-12T20:53:36.838Z,102738.84
2023-02-12T20:56:06.983Z,102743.38
2023-02-12T20:58:38.425Z,102737.09
2023-02-12T21:01:07.527Z,102738.06
2023-02-12T21:03:36.766Z,102742.41
2023-02-12T21:06:05.553Z,102740.66
2023-02-12T21:08:35.981Z,102747.78
2023-02-12T21:11:06.203Z,102749.63
2023-02-12T21:13:35.946Z,102744.38
2023-02-12T21:16:06.988Z,102750.50
2023-02-12T21:18:35.302Z,102753.13
2023-02-12T21:21:05.500Z,102750.41
2023-02-12T21:23:34.249Z,102753.16
2023-02-12T21:26:04.308Z,102758.50
2023-02-12T21:28:33.358Z,102760.22
2023-02-12T21:31:09.521Z,102764.63
2023-02-12T21:33:37.641Z,102753.84
2023-02-12T21:36:07.744Z,102748.47
2023-02-12T21:38:38.343Z,102752.94
2023-02-12T21:41:08.099Z,102752.97
2023-02-12T21:43:36.983Z,102752.97
2023-02-12T21:46:07.513Z,102746.00
2023-02-12T21:48:37.842Z,102750.44
2023-02-12T21:51:06.822Z,102754.16
2023-02-12T21:53:35.040Z,102749.75
2023-02-12T21:56:06.391Z,102747.16
2023-02-12T21:58:35.333Z,102745.41
2023-02-12T22:01:09.584Z,102747.25
2023-02-12T22:03:38.107Z,102754.38
2023-02-12T22:06:08.265Z,102753.50
2023-02-12T22:08:37.265Z,102751.91
2023-02-12T22:11:07.509Z,102763.44
2023-02-12T22:13:36.397Z,102754.56
2023-02-12T22:16:14.344Z,102746.56
2023-02-12T22:18:43.604Z,102751.91
2023-02-12T22:21:13.910Z,102756.34
2023-02-12T22:23:42.312Z,102747.50
2023-02-12T22:26:12.529Z,102749.34
2023-02-12T22:28:42.274Z,102745.06
2023-02-12T22:31:14.380Z,102758.34
2023-02-12T22:33:42.484Z,102753.16
2023-02-12T22:36:11.150Z,102750.56
2023-02-12T22:38:40.592Z,102753.22
2023-02-12T22:41:10.090Z,102749.69
2023-02-12T22:43:40.518Z,102758.47
2023-02-12T22:46:10.732Z,102754.91
2023-02-12T22:48:40.791Z,102753.22
2023-02-12T22:51:10.513Z,102747.12
2023-02-12T22:53:39.022Z,102750.72
2023-02-12T22:56:08.963Z,102746.16
2023-02-12T22:58:38.683Z,102755.06
2023-02-12T23:01:08.259Z,102756.03
2023-02-12T23:03:37.625Z,102756.03
2023-02-12T23:06:10.914Z,102750.66
2023-02-12T23:08:39.568Z,102755.87
2023-02-12T23:11:08.630Z,102758.47
2023-02-12T23:13:37.205Z,102754.00
2023-02-12T23:16:06.425Z,102761.94
2023-02-12T23:18:34.608Z,102755.69
2023-02-12T23:21:03.071Z,102753.91
2023-02-12T23:23:35.512Z,102761.84
2023-02-12T23:26:03.640Z,102760.97
2023-02-12T23:28:32.400Z,102762.88
2023-02-12T23:31:01.103Z,102760.16
2023-02-12T23:33:29.788Z,102759.34
2023-02-12T23:35:58.237Z,102765.59
2023-02-12T23:38:26.515Z,102762.94
2023-02-12T23:40:56.230Z,102759.47
2023-02-12T23:43:24.741Z,102755.81
2023-02-12T23:45:52.831Z,102760.28
2023-02-12T23:48:21.019Z,102752.28
2023-02-12T23:50:50.032Z,102753.22
2023-02-12T23:53:19.067Z,102751.47
2023-02-12T23:55:50.099Z,102755.97
2023-02-12T23:58:20.311Z,102763.97
